Time;durP1;ratioP1;P1;durP2;ratioP2;P2;SDS_P1;SDS_P2;PMS_P1;PMS_P2;Temp;Humidity;BMP_temperature;BMP_pressure;BME280_temperature;BME280_humidity;BME280_pressure;Samples;Min_cycle;Max_cycle;Signal;HPM_P1;HPM_P2
2022/06/06 06:24:57;;;;;;;;;;;;;;;21.67;66.93;97172.28;4238968;27;10322;-69
2022/06/06 06:27:04;;;;;;;;;;;;;;;21.94;66.53;97174.94;4229054;28;5710;-70
2022/06/06 06:29:09;;;;;;;;;;;;;;;22.15;66.01;97180.50;4228853;28;5060;-70
2022/06/06 06:31:25;;;;;;;;;;;;;;;22.33;66.03;97177.44;4229156;28;5719;-70
2022/06/06 06:33:49;;;;;;;;;;;;;;;22.52;65.63;97180.50;4229018;28;5759;-70
2022/06/06 06:36:02;;;;;;;;;;;;;;;22.70;65.06;97181.97;4228866;28;5715;-70
2022/06/06 06:38:19;;;;;;;;;;;;;;;22.92;64.68;97180.75;4229091;28;5710;-70
2022/06/06 06:40:38;;;;;;;;;;;;;;;23.07;63.88;97190.00;4232159;27;5700;-71
2022/06/06 06:43:01;;;;;;;;;;;;;;;23.15;63.59;97190.31;4245510;27;5695;-70
2022/06/06 06:45:09;;;;;;;;;;;;;;;23.20;63.77;97192.19;4245291;27;6918;-70
2022/06/06 06:47:18;;;;;;;;;;;;;;;23.27;63.28;97190.06;4245773;27;5063;-71
2022/06/06 06:49:35;;;;;;;;;;;;;;;23.42;62.86;97182.03;4227467;28;5724;-70
2022/06/06 06:51:44;;;;;;;;;;;;;;;23.52;62.66;97192.03;4246176;27;5688;-70
2022/06/06 06:54:13;;;;;;;;;;;;;;;23.56;62.63;97182.34;4245871;27;5765;-70
2022/06/06 06:56:41;;;;;;;;;;;;;;;23.64;62.18;97175.63;4246192;27;5999;-70
2022/06/06 06:58:53;;;;;;;;;;;;;;;23.67;62.34;97186.72;4246151;27;7687;-70
2022/06/06 07:00:59;;;;;;;;;;;;;;;23.68;62.08;97177.53;4245823;27;5747;-71
2022/06/06 07:10:43;;;;;;;;;;;;;;;23.78;61.37;97177.56;4243494;27;5697;-70
2022/06/06 07:13:03;;;;;;;;;;;;;;;23.82;61.17;97180.53;4245567;27;5723;-71
2022/06/06 07:15:20;;;;;;;;;;;;;;;23.85;61.35;97176.47;4233253;27;5819;-71
2022/06/06 07:17:25;;;;;;;;;;;;;;;23.84;60.98;97188.34;4228681;28;5766;-72
2022/06/06 07:19:33;;;;;;;;;;;;;;;23.79;61.37;97184.59;4228402;28;5783;-71
2022/06/06 07:21:38;;;;;;;;;;;;;;;23.75;60.92;97172.69;4233130;27;5885;-71
2022/06/06 07:23:43;;;;;;;;;;;;;;;23.78;61.15;97180.25;4245002;27;5730;-71
2022/06/06 07:25:48;;;;;;;;;;;;;;;23.80;60.88;97180.00;4234474;27;5735;-72
2022/06/06 07:27:52;;;;;;;;;;;;;;;23.81;60.50;97177.03;4234446;28;5704;-73
2022/06/06 07:29:55;;;;;;;;;;;;;;;23.83;60.29;97178.63;4233984;28;5713;-71
2022/06/06 07:32:19;;;;;;;;;;;;;;;23.78;60.19;97174.88;4215565;28;6444;-71
2022/06/06 07:34:38;;;;;;;;;;;;;;;23.81;60.03;97181.59;4215604;28;5923;-71
2022/06/06 07:36:55;;;;;;;;;;;;;;;23.84;59.92;97177.56;4234082;28;5712;-71
2022/06/06 07:39:07;;;;;;;;;;;;;;;23.85;60.28;97165.66;4233765;28;5741;-71
2022/06/06 07:41:24;;;;;;;;;;;;;;;23.84;60.23;97166.75;4234004;28;5749;-72
2022/06/06 07:43:53;;;;;;;;;;;;;;;23.80;60.05;97164.59;4232291;28;5724;-71
2022/06/06 07:46:09;;;;;;;;;;;;;;;23.80;60.00;97156.50;4233719;28;5762;-72
2022/06/06 07:48:27;;;;;;;;;;;;;;;23.75;60.03;97158.38;4233870;28;5792;-72
2022/06/06 07:50:38;;;;;;;;;;;;;;;23.71;59.74;97162.69;4233815;27;5699;-72
2022/06/06 07:52:49;;;;;;;;;;;;;;;23.67;59.33;97159.72;4232389;28;5753;-74
2022/06/06 07:55:01;;;;;;;;;;;;;;;23.63;59.75;97150.53;4233712;28;5807;-75
2022/06/06 07:57:10;;;;;;;;;;;;;;;23.63;59.42;97147.84;4233653;28;5749;-73
2022/06/06 07:59:24;;;;;;;;;;;;;;;23.66;59.18;97157.28;4231999;28;5731;-72
2022/06/06 08:01:37;;;;;;;;;;;;;;;23.62;59.28;97145.41;4233714;28;6443;-72
2022/06/06 08:03:51;;;;;;;;;;;;;;;23.61;58.78;97150.00;4233378;27;5530;-71
2022/06/06 08:06:21;;;;;;;;;;;;;;;23.59;59.06;97141.34;4224925;28;6231;-74
2022/06/06 08:08:38;;;;;;;;;;;;;;;23.61;59.04;97139.19;4230793;28;5727;-73
2022/06/06 08:10:43;;;;;;;;;;;;;;;23.65;58.63;97148.38;4233676;28;5723;-71
2022/06/06 08:13:27;;;;;;;;;;;;;;;23.67;58.64;97151.63;4233092;28;5696;-72
2022/06/06 08:15:42;;;;;;;;;;;;;;;23.66;58.26;97147.28;4231333;27;5850;-71
2022/06/06 08:18:00;;;;;;;;;;;;;;;23.68;58.40;97144.34;4250607;27;5778;-72
2022/06/06 08:20:15;;;;;;;;;;;;;;;23.69;58.15;97151.38;4198566;28;5824;-71
2022/06/06 08:22:19;;;;;;;;;;;;;;;23.64;57.90;97143.25;4230978;28;5700;-70
2022/06/06 08:24:26;;;;;;;;;;;;;;;23.64;57.54;97140.53;4232948;28;5885;-70
2022/06/06 08:26:49;;;;;;;;;;;;;;;23.67;58.08;97140.00;4233166;27;5753;-71
2022/06/06 08:28:52;;;;;;;;;;;;;;;23.64;57.58;97141.34;4231885;28;6531;-70
2022/06/06 08:30:57;;;;;;;;;;;;;;;23.65;57.76;97137.56;4231911;28;5697;-71
2022/06/06 08:33:00;;;;;;;;;;;;;;;23.68;57.61;97134.34;4216309;28;5939;-70
2022/06/06 08:35:03;;;;;;;;;;;;;;;23.70;57.16;97134.09;4216151;28;5763;-71
2022/06/06 08:37:38;;;;;;;;;;;;;;;23.69;57.47;97135.16;4212531;28;5782;-72
2022/06/06 08:39:51;;;;;;;;;;;;;;;23.70;57.42;97134.09;4200656;28;5736;-73
2022/06/06 08:42:17;;;;;;;;;;;;;;;23.74;57.10;97135.97;4216324;28;5153;-71
2022/06/06 08:44:29;;;;;;;;;;;;;;;23.77;57.00;97131.91;4215618;28;5731;-70
2022/06/06 08:46:49;;;;;;;;;;;;;;;23.80;56.58;97134.09;4215929;28;5715;-70
2022/06/06 08:49:10;;;;;;;;;;;;;;;23.82;56.60;97140.03;4216031;28;5702;-73
2022/06/06 08:51:30;;;;;;;;;;;;;;;23.85;56.44;97130.56;4216094;28;5711;-71
2022/06/06 08:54:06;;;;;;;;;;;;;;;23.86;56.49;97134.91;4215860;28;5719;-70
2022/06/06 08:56:29;;;;;;;;;;;;;;;23.91;56.14;97126.81;4197483;28;5758;-70
2022/06/06 08:59:04;;;;;;;;;;;;;;;23.91;55.87;97126.81;4220354;28;5844;-70
2022/06/06 09:01:25;;;;;;;;;;;;;;;23.91;55.47;97127.63;4232690;28;5696;-70
2022/06/06 09:04:22;;;;;;;;;;;;;;;23.99;55.66;97118.97;4232487;28;5684;-71
2022/06/06 09:07:10;;;;;;;;;;;;;;;24.04;55.33;97112.75;4173677;28;6405;-73
2022/06/06 09:09:49;;;;;;;;;;;;;;;24.10;55.03;97117.06;4231604;28;5624;-74
2022/06/06 09:12:26;;;;;;;;;;;;;;;24.15;54.81;97110.88;4231841;28;5736;-74
2022/06/06 09:14:56;;;;;;;;;;;;;;;24.17;54.78;97109.50;4226281;28;5697;-73
2022/06/06 09:17:42;;;;;;;;;;;;;;;24.19;54.83;97123.53;4207875;28;5735;-73
2022/06/06 09:20:15;;;;;;;;;;;;;;;24.25;54.42;97106.25;4215157;28;5711;-72
2022/06/06 09:22:41;;;;;;;;;;;;;;;24.33;54.08;97110.31;4215283;28;5767;-73
2022/06/06 09:25:13;;;;;;;;;;;;;;;24.41;54.06;97111.66;4219677;28;5688;-73
2022/06/06 09:27:45;;;;;;;;;;;;;;;24.38;53.78;97111.13;4231594;28;5692;-73
2022/06/06 09:30:19;;;;;;;;;;;;;;;24.36;53.74;97107.88;4225147;28;5845;-73
2022/06/06 09:33:00;;;;;;;;;;;;;;;24.37;53.62;97104.09;4227323;28;5793;-73
2022/06/06 09:36:03;;;;;;;;;;;;;;;24.37;53.48;97104.09;4231614;28;5808;-73
2022/06/06 09:38:16;;;;;;;;;;;;;;;24.36;53.18;97101.69;4145501;28;5838;-73
2022/06/06 09:40:29;;;;;;;;;;;;;;;24.34;53.45;97093.00;4146839;28;5830;-73
2022/06/06 09:42:40;;;;;;;;;;;;;;;24.38;53.11;97099.50;4145996;28;5811;-73
2022/06/06 09:45:08;;;;;;;;;;;;;;;24.40;53.13;97097.31;4145179;28;5775;-74
2022/06/06 09:47:52;;;;;;;;;;;;;;;24.41;52.77;97103.53;4144862;28;5854;-74
2022/06/06 09:50:23;;;;;;;;;;;;;;;24.40;52.42;97097.31;4140542;28;5790;-73
2022/06/06 09:53:08;;;;;;;;;;;;;;;24.45;52.47;97100.00;4130367;28;5822;-74
2022/06/06 09:59:03;;;;;;;;;;;;;;;24.39;52.20;97091.13;4081206;28;5282;-74
2022/06/06 10:01:28;;;;;;;;;;;;;;;24.46;52.41;97090.00;4085021;28;5850;-73
2022/06/06 10:04:18;;;;;;;;;;;;;;;24.51;52.30;97092.72;4085331;28;5887;-78
2022/06/06 10:06:48;;;;;;;;;;;;;;;24.51;51.98;97085.41;4084353;28;5863;-78
2022/06/06 10:09:17;;;;;;;;;;;;;;;24.52;51.74;97080.81;4092814;28;5630;-80
2022/06/06 10:11:58;;;;;;;;;;;;;;;24.55;51.95;97088.38;4161612;28;5852;-79
2022/06/06 10:14:14;;;;;;;;;;;;;;;24.52;51.41;97080.81;4139198;28;5890;-82
2022/06/06 10:16:45;;;;;;;;;;;;;;;24.53;51.38;97077.03;4160235;28;5772;-80
2022/06/06 10:19:06;;;;;;;;;;;;;;;24.54;51.30;97073.22;4158092;28;5844;-84
2022/06/06 10:21:26;;;;;;;;;;;;;;;24.54;51.05;97067.81;4159112;28;5792;-73
2022/06/06 10:23:47;;;;;;;;;;;;;;;24.56;51.12;97065.66;4158516;28;5784;-75
2022/06/06 10:26:23;;;;;;;;;;;;;;;24.57;50.59;97064.56;4163196;28;5888;-81
2022/06/06 10:28:50;;;;;;;;;;;;;;;24.58;50.68;97063.50;4119755;28;5787;-81
2022/06/06 10:31:06;;;;;;;;;;;;;;;24.65;50.31;97066.69;4160379;27;5809;-79
2022/06/06 10:33:41;;;;;;;;;;;;;;;24.72;50.29;97066.41;4233092;27;5711;-78
2022/06/06 10:35:54;;;;;;;;;;;;;;;24.73;50.21;97068.84;4228900;27;5714;-73
2022/06/06 10:38:06;;;;;;;;;;;;;;;24.73;50.14;97063.44;4228101;28;6534;-71
2022/06/06 10:40:26;;;;;;;;;;;;;;;24.73;49.91;97058.03;4231239;28;5778;-67
2022/06/06 10:43:04;;;;;;;;;;;;;;;24.76;50.19;97065.56;4245474;27;5740;-76
2022/06/06 10:45:24;;;;;;;;;;;;;;;24.82;49.83;97061.78;4229734;28;5719;-70
2022/06/06 10:47:41;;;;;;;;;;;;;;;24.83;50.02;97062.59;4228322;28;5704;-70
2022/06/06 10:49:54;;;;;;;;;;;;;;;24.88;49.98;97057.94;4231132;27;5737;-70
2022/06/06 10:52:52;;;;;;;;;;;;;;;24.98;49.74;97057.91;4224657;28;5640;-68
2022/06/06 10:55:32;;;;;;;;;;;;;;;25.08;49.64;97058.97;4236542;27;5678;-67
2022/06/06 10:58:03;;;;;;;;;;;;;;;25.15;49.28;97051.34;4229274;27;6553;-67
2022/06/06 11:00:15;;;;;;;;;;;;;;;25.18;49.38;97039.97;4229387;27;5735;-65
2022/06/06 11:02:57;;;;;;;;;;;;;;;25.20;48.90;97044.00;4225619;28;5712;-67
2022/06/06 11:05:23;;;;;;;;;;;;;;;25.24;48.81;97049.66;4223036;27;5801;-72
2022/06/06 11:07:57;;;;;;;;;;;;;;;25.22;49.04;97047.22;4234050;27;5817;-77
2022/06/06 11:10:38;;;;;;;;;;;;;;;25.23;48.88;97048.03;4228032;28;5731;-71
2022/06/06 11:13:11;;;;;;;;;;;;;;;25.25;48.44;97049.38;4197926;28;5692;-69
2022/06/06 11:15:16;;;;;;;;;;;;;;;25.27;48.59;97045.59;4225913;27;6022;-71
2022/06/06 11:17:50;;;;;;;;;;;;;;;25.26;48.27;97039.38;4231871;28;5803;-75
2022/06/06 11:20:21;;;;;;;;;;;;;;;25.28;48.21;97034.50;4225955;28;5639;-76
2022/06/06 11:22:29;;;;;;;;;;;;;;;25.27;48.06;97041.00;4224405;28;5740;-71
2022/06/06 11:24:40;;;;;;;;;;;;;;;25.26;48.08;97036.69;4221336;28;6474;-71
2022/06/06 11:27:17;;;;;;;;;;;;;;;25.26;48.25;97036.69;4233589;28;5720;-73
2022/06/06 11:29:54;;;;;;;;;;;;;;;25.25;47.78;97035.03;4228626;28;5837;-73
2022/06/06 11:32:28;;;;;;;;;;;;;;;25.27;47.76;97040.19;4206954;28;5696;-72
2022/06/06 11:35:09;;;;;;;;;;;;;;;25.26;47.68;97036.69;4219817;28;5710;-76
2022/06/06 11:38:08;;;;;;;;;;;;;;;25.21;47.70;97031.28;4227838;28;5708;-69
2022/06/06 11:40:27;;;;;;;;;;;;;;;25.21;47.57;97032.09;4169348;28;5793;-72
2022/06/06 11:43:03;;;;;;;;;;;;;;;25.20;47.73;97021.56;4177635;28;6004;-68
2022/06/06 11:45:25;;;;;;;;;;;;;;;25.21;47.55;97017.75;4167713;28;5867;-72
2022/06/06 11:47:50;;;;;;;;;;;;;;;25.21;47.67;97023.16;4175250;28;5808;-77
2022/06/06 11:50:31;;;;;;;;;;;;;;;25.23;47.49;97018.28;4171065;28;5952;-73
2022/06/06 11:52:56;;;;;;;;;;;;;;;25.25;47.64;97016.91;4170898;28;5928;-77
2022/06/06 11:55:34;;;;;;;;;;;;;;;25.30;47.56;97021.47;4179524;28;6987;-75
2022/06/06 11:58:10;;;;;;;;;;;;;;;25.39;47.32;97025.22;4179327;28;5822;-69
2022/06/06 12:00:21;;;;;;;;;;;;;;;25.47;47.33;97016.47;4145113;28;5842;-68
2022/06/06 12:03:09;;;;;;;;;;;;;;;25.52;47.34;97013.72;4178573;28;5091;-63
2022/06/06 12:06:01;;;;;;;;;;;;;;;25.54;46.79;97014.25;4173834;28;6672;-65
2022/06/06 12:08:43;;;;;;;;;;;;;;;25.49;46.78;97003.47;4173869;28;6062;-68
2022/06/06 12:10:59;;;;;;;;;;;;;;;25.47;46.75;97002.94;4174010;28;5846;-65
2022/06/06 12:13:41;;;;;;;;;;;;;;;25.50;46.87;96996.16;4172729;28;5809;-67
2022/06/06 12:16:03;;;;;;;;;;;;;;;25.51;46.71;96995.88;4144257;28;5680;-70
2022/06/06 12:18:31;;;;;;;;;;;;;;;25.51;46.67;97003.19;4163146;28;6411;-69
2022/06/06 12:21:01;;;;;;;;;;;;;;;25.50;46.28;96986.16;4144048;28;5835;-66
2022/06/06 12:23:12;;;;;;;;;;;;;;;25.49;46.16;96989.94;4162339;28;5712;-75
2022/06/06 12:25:37;;;;;;;;;;;;;;;25.46;46.47;96979.66;4160301;28;5806;-74
2022/06/06 12:28:14;;;;;;;;;;;;;;;25.45;46.42;96978.06;4162494;28;6509;-69
2022/06/06 12:30:36;;;;;;;;;;;;;;;25.46;46.21;96976.16;4162593;28;5780;-76
2022/06/06 12:32:48;;;;;;;;;;;;;;;25.45;45.83;96975.34;4160788;28;5684;-71
2022/06/06 12:34:58;;;;;;;;;;;;;;;25.44;45.95;96976.44;4161738;28;5692;-66
2022/06/06 12:37:11;;;;;;;;;;;;;;;25.43;46.19;96984.84;4161303;28;5692;-68
2022/06/06 12:39:21;;;;;;;;;;;;;;;25.44;45.77;96970.22;4167959;28;5859;-69
2022/06/06 12:41:43;;;;;;;;;;;;;;;25.42;45.73;96970.50;4154823;28;5695;-69
2022/06/06 12:43:58;;;;;;;;;;;;;;;25.45;45.97;96964.53;4163673;28;5711;-72
2022/06/06 12:46:19;;;;;;;;;;;;;;;25.47;45.67;96966.94;4163403;28;5695;-72
2022/06/06 12:48:54;;;;;;;;;;;;;;;25.47;45.49;96964.22;4156803;28;5840;-70
2022/06/06 12:51:07;;;;;;;;;;;;;;;25.46;45.45;96965.31;4164823;28;5855;-74
2022/06/06 12:53:33;;;;;;;;;;;;;;;25.46;45.37;96959.91;4223947;28;5672;-69
2022/06/06 12:56:10;;;;;;;;;;;;;;;25.47;45.37;96964.22;4222286;28;5768;-71
2022/06/06 12:58:31;;;;;;;;;;;;;;;25.46;45.45;96949.91;4225766;28;5832;-66
2022/06/06 13:03:07;;;;;;;;;;;;;;;25.47;45.05;96940.69;4225455;28;5820;-68
2022/06/06 13:05:19;;;;;;;;;;;;;;;25.48;44.97;96944.19;4217669;28;5716;-64
2022/06/06 13:08:00;;;;;;;;;;;;;;;25.48;45.02;96934.19;4221194;28;6445;-66
2022/06/06 13:10:30;;;;;;;;;;;;;;;25.50;44.89;96931.22;4224614;28;5676;-65
2022/06/06 13:12:58;;;;;;;;;;;;;;;25.50;44.56;96932.00;4220313;28;6508;-67
2022/06/06 13:15:10;;;;;;;;;;;;;;;25.53;44.65;96930.63;4222222;28;5713;-65
2022/06/06 13:17:26;;;;;;;;;;;;;;;25.54;44.90;96930.34;4225803;28;5699;-65
2022/06/06 13:19:41;;;;;;;;;;;;;;;25.57;44.49;96925.44;4221645;27;5812;-65
2022/06/06 13:21:59;;;;;;;;;;;;;;;25.60;44.35;96924.91;4224891;28;5713;-65
2022/06/06 13:24:37;;;;;;;;;;;;;;;25.64;44.75;96925.94;4219636;28;6273;-65
2022/06/06 13:26:48;;;;;;;;;;;;;;;25.67;44.46;96926.16;4218077;28;5815;-65
2022/06/06 13:28:53;;;;;;;;;;;;;;;25.68;44.85;96911.53;4225616;28;7862;-65
2022/06/06 13:31:18;;;;;;;;;;;;;;;25.71;44.58;96929.13;4226033;28;5821;-65
2022/06/06 13:33:38;;;;;;;;;;;;;;;25.72;44.29;96926.16;4222951;28;6484;-65
2022/06/06 13:36:05;;;;;;;;;;;;;;;25.72;44.42;96923.44;4219082;28;5563;-65
2022/06/06 13:38:25;;;;;;;;;;;;;;;25.73;44.34;96918.81;4218263;28;5779;-65
2022/06/06 13:40:38;;;;;;;;;;;;;;;25.74;44.33;96921.25;4213217;28;5624;-66
2022/06/06 13:43:08;;;;;;;;;;;;;;;25.77;44.30;96925.28;4228411;28;5696;-65
2022/06/06 13:45:20;;;;;;;;;;;;;;;25.78;44.42;96916.06;4223270;28;6567;-66
2022/06/06 13:47:46;;;;;;;;;;;;;;;25.78;44.27;96922.28;4222126;28;5724;-65
2022/06/06 13:50:03;;;;;;;;;;;;;;;25.78;44.56;96916.06;4197293;28;5704;-65
2022/06/06 13:52:23;;;;;;;;;;;;;;;25.82;44.43;96917.06;4224298;28;5823;-65
2022/06/06 13:54:29;;;;;;;;;;;;;;;25.84;44.34;96914.91;4217728;28;5778;-65
2022/06/06 13:56:43;;;;;;;;;;;;;;;25.84;44.13;96906.78;4226679;28;5729;-64
2022/06/06 13:59:00;;;;;;;;;;;;;;;25.84;43.82;96909.50;4224677;28;5988;-65
2022/06/06 14:01:18;;;;;;;;;;;;;;;25.86;43.68;96901.09;4230567;27;5893;-65
2022/06/06 14:03:37;;;;;;;;;;;;;;;25.88;43.88;96899.69;4224427;28;5868;-67
2022/06/06 14:06:02;;;;;;;;;;;;;;;25.91;43.80;96901.81;4229512;28;6557;-64
2022/06/06 14:08:11;;;;;;;;;;;;;;;25.95;43.74;96899.34;4221693;28;5751;-65
2022/06/06 14:10:18;;;;;;;;;;;;;;;25.95;43.69;96897.47;4222949;28;5680;-65
2022/06/06 14:12:51;;;;;;;;;;;;;;;25.97;43.27;96897.97;4229139;28;5693;-65
2022/06/06 14:15:02;;;;;;;;;;;;;;;26.00;43.37;96889.25;4226440;28;5731;-65
2022/06/06 14:17:08;;;;;;;;;;;;;;;26.03;43.51;96890.56;4221989;28;5832;-65
2022/06/06 14:19:16;;;;;;;;;;;;;;;26.09;43.34;96894.84;4229104;28;5703;-65
2022/06/06 14:21:27;;;;;;;;;;;;;;;26.10;42.90;96886.41;4226575;28;5778;-65
2022/06/06 14:23:35;;;;;;;;;;;;;;;26.13;43.06;96883.13;4221518;27;5613;-73
2022/06/06 14:25:45;;;;;;;;;;;;;;;26.16;42.99;96887.16;4222891;28;6603;-74
2022/06/06 14:27:48;;;;;;;;;;;;;;;26.18;43.18;96893.09;4219227;28;5117;-75
2022/06/06 14:29:58;;;;;;;;;;;;;;;26.18;43.03;96895.00;4221118;28;6552;-75
2022/06/06 14:32:07;;;;;;;;;;;;;;;26.19;42.97;96893.91;4217040;28;5707;-72
2022/06/06 14:34:26;;;;;;;;;;;;;;;26.20;43.18;96885.50;4222497;28;5816;-76
2022/06/06 14:36:30;;;;;;;;;;;;;;;26.22;42.98;96887.91;4223780;28;5918;-75
2022/06/06 14:38:38;;;;;;;;;;;;;;;26.22;43.06;96885.19;4227336;28;5709;-69
2022/06/06 14:40:46;;;;;;;;;;;;;;;26.24;43.14;96878.38;4228290;28;6438;-76
2022/06/06 14:42:55;;;;;;;;;;;;;;;26.29;42.94;96882.94;4220648;27;5779;-73
2022/06/06 14:45:04;;;;;;;;;;;;;;;26.31;43.02;96878.03;4224612;28;5865;-67
2022/06/06 14:47:12;;;;;;;;;;;;;;;26.34;43.23;96885.56;4231802;28;5756;-70
2022/06/06 14:49:24;;;;;;;;;;;;;;;26.35;43.11;96892.59;4227771;28;5712;-70
2022/06/06 14:51:37;;;;;;;;;;;;;;;26.36;43.30;96892.34;4224742;28;5799;-70
2022/06/06 14:53:48;;;;;;;;;;;;;;;26.39;43.13;96888.25;4225686;28;5096;-73
2022/06/06 14:55:54;;;;;;;;;;;;;;;26.38;43.22;96883.91;4231999;28;6440;-69
2022/06/06 14:57:57;;;;;;;;;;;;;;;26.38;43.43;96886.63;4220688;28;5084;-68
2022/06/06 15:00:05;;;;;;;;;;;;;;;26.36;43.23;96886.09;4225712;28;5863;-77
2022/06/06 15:02:14;;;;;;;;;;;;;;;26.35;43.25;96896.13;4234479;28;5824;-79
2022/06/06 15:04:22;;;;;;;;;;;;;;;26.33;43.25;96890.19;4232827;28;5741;-69
2022/06/06 15:06:28;;;;;;;;;;;;;;;26.32;43.53;96882.34;4223489;28;5799;-73
2022/06/06 15:08:36;;;;;;;;;;;;;;;26.30;43.71;96881.84;4229676;28;5708;-71
2022/06/06 15:10:44;;;;;;;;;;;;;;;26.30;43.49;96879.13;4207590;28;5735;-73
2022/06/06 15:12:47;;;;;;;;;;;;;;;26.28;43.63;96876.72;4234622;28;5774;-74
2022/06/06 15:14:52;;;;;;;;;;;;;;;26.28;43.78;96881.34;4231526;27;5860;-76
2022/06/06 15:16:58;;;;;;;;;;;;;;;26.27;43.76;96868.84;4231428;28;5737;-67
2022/06/06 15:19:04;;;;;;;;;;;;;;;26.29;43.86;96872.09;4228856;28;5848;-72
2022/06/06 15:21:10;;;;;;;;;;;;;;;26.30;43.92;96871.00;4224375;28;5715;-71
2022/06/06 15:23:20;;;;;;;;;;;;;;;26.32;43.91;96876.94;4221975;28;6148;-72
2022/06/06 15:25:30;;;;;;;;;;;;;;;26.33;43.81;96879.34;4230018;28;5877;-67
2022/06/06 15:27:59;;;;;;;;;;;;;;;26.34;43.47;96874.72;4234364;28;5688;-71
2022/06/06 15:30:05;;;;;;;;;;;;;;;26.31;43.76;96875.31;4221075;28;5680;-79
2022/06/06 15:32:18;;;;;;;;;;;;;;;26.32;43.66;96876.94;4210537;28;5639;-65
2022/06/06 15:34:36;;;;;;;;;;;;;;;26.33;43.37;96873.13;4227832;27;5610;-74
2022/06/06 15:36:49;;;;;;;;;;;;;;;26.32;43.53;96871.50;4224060;28;5704;-71
2022/06/06 15:39:01;;;;;;;;;;;;;;;26.32;43.49;96871.50;4231502;28;5681;-70
2022/06/06 15:41:12;;;;;;;;;;;;;;;26.32;43.47;96866.09;4228346;27;5593;-66
2022/06/06 15:43:29;;;;;;;;;;;;;;;26.30;43.42;96863.69;4226420;28;5771;-65
2022/06/06 15:45:51;;;;;;;;;;;;;;;26.32;43.41;96861.47;4223004;28;6417;-66
2022/06/06 15:48:01;;;;;;;;;;;;;;;26.33;43.38;96862.28;4231317;28;5601;-66
2022/06/06 15:50:40;;;;;;;;;;;;;;;26.34;43.20;96861.19;4222169;28;6742;-66
2022/06/06 15:52:56;;;;;;;;;;;;;;;26.35;42.95;96857.38;4234596;28;5700;-66
2022/06/06 15:55:08;;;;;;;;;;;;;;;26.35;42.88;96855.47;4228457;28;5617;-66
2022/06/06 15:57:17;;;;;;;;;;;;;;;26.33;43.24;96860.38;4226235;28;5187;-66
2022/06/06 16:00:00;;;;;;;;;;;;;;;26.32;43.19;96853.34;4226656;28;5725;-66
2022/06/06 16:02:23;;;;;;;;;;;;;;;26.31;43.17;96856.34;4221154;28;7699;-66
2022/06/06 16:04:36;;;;;;;;;;;;;;;26.32;43.04;96855.25;4224390;28;5605;-66
2022/06/06 16:06:39;;;;;;;;;;;;;;;26.31;42.96;96859.06;4206489;28;5650;-66
2022/06/06 16:09:02;;;;;;;;;;;;;;;26.29;43.17;96845.81;4226449;28;5672;-65
2022/06/06 16:11:12;;;;;;;;;;;;;;;26.29;42.91;96861.25;4227775;28;5606;-66
2022/06/06 16:13:34;;;;;;;;;;;;;;;26.29;43.21;96858.56;4222848;28;5760;-65
2022/06/06 16:15:39;;;;;;;;;;;;;;;26.27;42.94;96849.88;4226890;28;5629;-66
2022/06/06 16:17:48;;;;;;;;;;;;;;;26.27;43.31;96855.31;4233576;28;5747;-66
2022/06/06 16:19:59;;;;;;;;;;;;;;;26.25;43.16;96846.66;4230820;28;5616;-66
2022/06/06 16:22:09;;;;;;;;;;;;;;;26.26;43.14;96845.56;4232093;28;5625;-66
2022/06/06 16:24:21;;;;;;;;;;;;;;;26.24;43.05;96842.34;4227195;28;5618;-66
2022/06/06 16:26:29;;;;;;;;;;;;;;;26.28;43.26;96854.22;4235424;28;5716;-66
2022/06/06 16:28:37;;;;;;;;;;;;;;;26.30;43.14;96852.03;4221283;28;6353;-66
2022/06/06 16:30:47;;;;;;;;;;;;;;;26.29;43.40;96855.84;4233801;28;5622;-66
2022/06/06 16:33:15;;;;;;;;;;;;;;;26.27;43.28;96863.44;4226586;28;5635;-66
2022/06/06 16:35:43;;;;;;;;;;;;;;;26.25;43.73;96855.59;4230180;28;6503;-66
2022/06/06 16:38:03;;;;;;;;;;;;;;;26.24;43.71;96854.00;4218668;28;5684;-66
2022/06/06 16:40:32;;;;;;;;;;;;;;;26.22;44.11;96855.38;4219062;28;5616;-66
2022/06/06 16:47:56;;;;;;;;;;;;;;;26.12;45.17;96867.97;4231658;28;5811;-66
2022/06/06 16:50:14;;;;;;;;;;;;;;;26.09;45.52;96873.97;4210408;28;5736;-66
2022/06/06 16:52:27;;;;;;;;;;;;;;;26.06;45.47;96874.56;4234402;28;5901;-66
2022/06/06 16:54:40;;;;;;;;;;;;;;;26.04;45.85;96882.16;4227773;28;5156;-66
2022/06/06 16:57:07;;;;;;;;;;;;;;;26.03;46.33;96877.84;4226364;28;5645;-65
2022/06/06 16:59:26;;;;;;;;;;;;;;;26.01;46.71;96882.75;4226098;28;5685;-66
2022/06/06 17:01:37;;;;;;;;;;;;;;;25.99;46.74;96890.34;4234034;28;5744;-65
2022/06/06 17:03:51;;;;;;;;;;;;;;;25.97;47.17;96889.84;4225433;28;5707;-66
2022/06/06 17:08:26;;;;;;;;;;;;;;;25.91;47.42;96895.59;4226314;28;5624;-66
2022/06/06 17:10:43;;;;;;;;;;;;;;;25.90;47.78;96900.22;4224582;28;5866;-66
2022/06/06 17:12:53;;;;;;;;;;;;;;;25.89;47.93;96905.91;4224488;28;5619;-65
2022/06/06 17:15:15;;;;;;;;;;;;;;;25.83;47.88;96900.56;4224749;28;5871;-65
2022/06/06 17:17:21;;;;;;;;;;;;;;;25.81;48.41;96907.34;4222950;28;5669;-66
2022/06/06 17:19:27;;;;;;;;;;;;;;;25.76;48.63;96908.22;4219180;28;5693;-66
2022/06/06 17:21:38;;;;;;;;;;;;;;;25.73;48.54;96908.00;4224950;28;5608;-66
2022/06/06 17:23:54;;;;;;;;;;;;;;;25.73;48.44;96913.41;4226480;28;5661;-66
2022/06/06 17:26:00;;;;;;;;;;;;;;;25.72;48.82;96911.81;4219445;28;5624;-66
2022/06/06 17:28:53;;;;;;;;;;;;;;;25.71;48.57;96919.13;4218166;28;5710;-66
2022/06/06 17:31:04;;;;;;;;;;;;;;;25.70;48.62;96927.50;4222605;28;5784;-67
2022/06/06 17:33:25;;;;;;;;;;;;;;;25.69;48.73;96923.16;4230372;28;5605;-66
2022/06/06 17:35:31;;;;;;;;;;;;;;;25.66;48.76;96929.16;4231856;28;5593;-67
2022/06/06 17:37:56;;;;;;;;;;;;;;;25.64;48.94;96931.34;4232670;28;5798;-66
2022/06/06 17:40:00;;;;;;;;;;;;;;;25.63;48.58;96930.53;4226812;28;5695;-66
2022/06/06 17:42:29;;;;;;;;;;;;;;;25.64;48.90;96940.28;4231333;28;5616;-67
2022/06/06 17:44:39;;;;;;;;;;;;;;;25.62;48.69;96939.75;4218403;28;5628;-67
2022/06/06 17:46:47;;;;;;;;;;;;;;;25.58;48.87;96944.09;4220574;28;5690;-66
2022/06/06 17:49:18;;;;;;;;;;;;;;;25.55;48.86;96940.06;4228921;28;5713;-67
2022/06/06 17:51:34;;;;;;;;;;;;;;;25.56;48.83;96946.28;4229136;28;7747;-67
2022/06/06 17:53:51;;;;;;;;;;;;;;;25.54;48.53;96948.47;4222058;28;5714;-66
2022/06/06 17:56:02;;;;;;;;;;;;;;;25.52;48.41;96946.06;4233781;28;5757;-66
2022/06/06 17:58:16;;;;;;;;;;;;;;;25.53;48.65;96958.50;4231573;28;5593;-67
2022/06/06 18:00:21;;;;;;;;;;;;;;;25.51;48.71;96957.19;4227480;28;5742;-67
2022/06/06 18:02:57;;;;;;;;;;;;;;;25.50;48.45;96960.97;4230176;28;6651;-66
2022/06/06 18:05:23;;;;;;;;;;;;;;;25.49;48.83;96959.38;4227236;28;5672;-66
2022/06/06 18:07:40;;;;;;;;;;;;;;;25.46;48.79;96968.84;4232471;28;5605;-66
2022/06/06 18:09:54;;;;;;;;;;;;;;;25.43;48.59;96971.31;4220203;28;6505;-66
2022/06/06 18:12:12;;;;;;;;;;;;;;;25.39;48.54;96984.63;4231836;28;5605;-66
2022/06/06 18:14:25;;;;;;;;;;;;;;;25.37;48.66;96984.09;4230566;28;5609;-66
2022/06/06 18:16:37;;;;;;;;;;;;;;;25.36;48.96;96987.88;4222296;28;7773;-66
2022/06/06 18:18:44;;;;;;;;;;;;;;;25.35;48.60;96982.75;4223982;28;5749;-66
2022/06/06 18:20:54;;;;;;;;;;;;;;;25.33;48.79;96985.75;4222527;27;5552;-67
2022/06/06 18:22:59;;;;;;;;;;;;;;;25.32;49.12;96978.72;4223314;27;5783;-66
2022/06/06 18:25:02;;;;;;;;;;;;;;;25.32;49.00;96978.72;4223595;28;5590;-68
2022/06/06 18:27:15;;;;;;;;;;;;;;;25.33;49.20;96977.63;4227977;28;5609;-67
2022/06/06 18:29:22;;;;;;;;;;;;;;;25.32;49.56;96978.72;4227236;27;5601;-74
2022/06/06 18:31:29;;;;;;;;;;;;;;;25.31;49.41;96981.69;4228195;27;6399;-75
2022/06/06 18:33:37;;;;;;;;;;;;;;;25.29;49.44;96973.06;4234113;27;5100;-78
2022/06/06 18:35:48;;;;;;;;;;;;;;;25.24;49.53;96941.44;4223951;27;5735;-79
2022/06/06 18:37:59;;;;;;;;;;;;;;;25.19;49.75;96931.47;4231000;28;5665;-77
2022/06/06 18:40:22;;;;;;;;;;;;;;;25.15;49.91;96949.38;4228934;27;5597;-71
2022/06/06 18:42:29;;;;;;;;;;;;;;;25.13;50.02;96951.53;4232610;27;5720;-73
2022/06/06 18:44:34;;;;;;;;;;;;;;;25.13;49.63;96961.53;4230377;27;5711;-74
2022/06/06 18:46:58;;;;;;;;;;;;;;;25.14;49.66;96960.44;4229706;28;5594;-75
2022/06/06 18:49:05;;;;;;;;;;;;;;;25.14;49.52;96968.56;4233772;28;5869;-77
2022/06/06 18:51:12;;;;;;;;;;;;;;;25.15;49.80;96964.78;4228585;28;5691;-78
2022/06/06 18:53:21;;;;;;;;;;;;;;;25.14;49.43;96965.84;4231310;28;5680;-78
2022/06/06 18:55:28;;;;;;;;;;;;;;;25.13;49.58;96965.06;4232660;28;5625;-77
2022/06/06 18:58:02;;;;;;;;;;;;;;;25.09;49.80;96955.09;4229541;28;5688;-76